createdAt,value
2023-05-08T00:02:42.526Z,4.32
2023-05-08T00:05:46.134Z,4.35
2023-05-08T00:08:48.697Z,4.18
2023-05-08T00:11:51.861Z,3.70
2023-05-08T00:14:54.442Z,4.55
2023-05-08T00:17:57.606Z,3.37
2023-05-08T00:21:00.264Z,4.85
2023-05-08T00:24:03.199Z,4.45
2023-05-08T00:27:06.222Z,4.32
2023-05-08T00:30:09.888Z,3.45
2023-05-08T00:33:12.776Z,4.32
2023-05-08T00:36:15.826Z,6.15
2023-05-08T00:39:19.343Z,4.85
2023-05-08T00:42:22.244Z,3.58
2023-05-08T00:45:24.922Z,3.08
2023-05-08T00:48:34.084Z,4.60
2023-05-08T00:51:37.576Z,6.37
2023-05-08T00:54:40.836Z,3.47
2023-05-08T00:57:46.630Z,3.75
2023-05-08T01:00:51.067Z,4.50
2023-05-08T01:03:54.158Z,3.92
2023-05-08T01:06:57.428Z,2.90
2023-05-08T01:10:00.218Z,4.47
2023-05-08T01:13:20.403Z,4.47
2023-05-08T01:17:12.558Z,4.62
2023-05-08T01:20:37.170Z,3.25
2023-05-08T01:24:17.292Z,3.50
2023-05-08T01:27:50.675Z,4.30
2023-05-08T01:31:00.169Z,3.78
2023-05-08T01:34:05.200Z,7.78
2023-05-08T01:37:14.998Z,3.97
2023-05-08T01:40:28.358Z,3.65
2023-05-08T01:43:51.222Z,4.57
2023-05-08T01:46:55.943Z,4.53
2023-05-08T01:50:07.392Z,3.92
2023-05-08T01:53:23.090Z,3.45
2023-05-08T01:56:28.714Z,4.35
2023-05-08T01:59:33.874Z,3.78
2023-05-08T02:02:36.867Z,4.05
2023-05-08T02:05:40.625Z,3.42
2023-05-08T02:08:46.344Z,3.80
2023-05-08T02:11:51.176Z,5.80
2023-05-08T02:14:56.021Z,4.25
2023-05-08T02:17:59.396Z,5.07
2023-05-08T02:21:05.514Z,4.68
2023-05-08T02:24:10.063Z,5.68
2023-05-08T02:27:14.156Z,4.50
2023-05-08T02:30:18.045Z,4.35
2023-05-08T02:33:21.783Z,4.07
2023-05-08T02:36:28.470Z,4.40
2023-05-08T02:39:35.521Z,5.12
2023-05-08T02:42:40.034Z,3.47
2023-05-08T02:45:52.499Z,4.15
2023-05-08T02:49:03.660Z,3.97
2023-05-08T02:52:23.044Z,4.05
2023-05-08T02:56:13.116Z,4.32
2023-05-08T02:59:47.072Z,3.60
2023-05-08T03:02:54.722Z,3.90
2023-05-08T03:06:00.692Z,3.87
2023-05-08T03:09:06.675Z,3.33
2023-05-08T03:12:22.215Z,3.87
2023-05-08T03:15:47.187Z,2.85
2023-05-08T03:18:55.073Z,3.85
2023-05-08T03:21:59.068Z,3.73
2023-05-08T03:25:05.206Z,3.65
2023-05-08T03:28:10.354Z,5.07
2023-05-08T03:31:16.725Z,3.85
2023-05-08T03:34:21.147Z,4.05
2023-05-08T03:37:24.428Z,4.32
2023-05-08T03:40:27.851Z,4.32
2023-05-08T03:43:32.167Z,4.30
2023-05-08T03:46:36.016Z,3.70
2023-05-08T03:49:39.310Z,2.92
2023-05-08T03:52:43.332Z,3.60
2023-05-08T03:55:46.695Z,3.58
2023-05-08T03:59:04.802Z,2.75
2023-05-08T04:02:10.914Z,2.67
2023-05-08T04:05:21.559Z,2.83
2023-05-08T04:08:32.279Z,2.45
2023-05-08T04:11:58.631Z,1.80
2023-05-08T04:15:11.765Z,3.22
2023-05-08T04:18:22.468Z,2.90
2023-05-08T04:21:27.591Z,2.45
2023-05-08T04:24:34.164Z,2.90
2023-05-08T04:27:37.879Z,2.25
2023-05-08T04:30:42.622Z,2.78
2023-05-08T04:33:47.048Z,3.15
2023-05-08T04:36:52.317Z,1.52
2023-05-08T04:39:55.444Z,2.05
2023-05-08T04:42:59.250Z,2.12
2023-05-08T04:46:05.462Z,1.58
2023-05-08T04:49:09.155Z,2.17
2023-05-08T04:52:12.145Z,2.25
2023-05-08T04:55:15.568Z,1.62
2023-05-08T04:58:18.941Z,2.87
2023-05-08T05:01:21.856Z,2.45
2023-05-08T05:04:24.696Z,2.50
2023-05-08T05:07:28.432Z,2.30
2023-05-08T05:10:31.228Z,1.65
2023-05-08T05:13:35.002Z,1.95
2023-05-08T05:16:38.125Z,1.75
2023-05-08T05:19:41.190Z,3.58
2023-05-08T05:22:44.342Z,1.33
2023-05-08T05:25:47.425Z,1.90
2023-05-08T05:28:50.056Z,1.50
2023-05-08T05:31:53.366Z,1.25
2023-05-08T05:34:56.769Z,1.90
2023-05-08T05:37:59.872Z,5.28
2023-05-08T05:41:02.776Z,5.43
2023-05-08T05:44:05.849Z,1.60
2023-05-08T05:47:11.169Z,1.75
2023-05-08T05:50:14.770Z,1.80
2023-05-08T05:53:17.559Z,1.52
2023-05-08T05:56:21.607Z,1.80
2023-05-08T05:59:24.505Z,1.40
2023-05-08T06:02:28.866Z,1.20
2023-05-08T06:05:31.823Z,1.52
2023-05-08T06:08:34.685Z,1.62
2023-05-08T06:11:37.644Z,1.90
2023-05-08T06:14:40.735Z,1.58
2023-05-08T06:17:44.514Z,1.60
2023-05-08T06:20:47.232Z,1.50
2023-05-08T06:23:50.249Z,1.42
2023-05-08T06:26:52.821Z,1.70
2023-05-08T06:29:55.786Z,1.40
2023-05-08T06:32:58.588Z,1.52
2023-05-08T06:36:01.599Z,1.73
2023-05-08T06:39:06.100Z,1.45
2023-05-08T06:42:09.361Z,2.35
2023-05-08T06:45:13.666Z,1.62
2023-05-08T06:48:16.713Z,1.92
2023-05-08T06:51:23.086Z,1.60
2023-05-08T06:54:26.311Z,1.70
2023-05-08T06:57:30.356Z,1.30
2023-05-08T07:00:33.686Z,1.87
2023-05-08T07:03:37.045Z,1.60
2023-05-08T07:06:40.093Z,1.30
2023-05-08T07:09:42.719Z,1.10
2023-05-08T07:12:46.106Z,1.40
2023-05-08T07:15:48.909Z,1.45
2023-05-08T07:18:52.514Z,1.25
2023-05-08T07:21:55.337Z,2.05
2023-05-08T07:25:01.057Z,1.65
2023-05-08T07:28:03.982Z,1.40
2023-05-08T07:31:09.753Z,1.37
2023-05-08T07:34:12.894Z,1.35
2023-05-08T07:37:15.870Z,1.35
2023-05-08T07:40:18.697Z,1.55
2023-05-08T07:43:21.604Z,1.75
2023-05-08T07:46:24.355Z,1.17
2023-05-08T07:49:27.451Z,0.98
2023-05-08T07:52:30.311Z,1.35
2023-05-08T07:55:33.737Z,1.40
2023-05-08T07:58:36.430Z,1.25
2023-05-08T08:01:39.705Z,1.42
2023-05-08T08:04:42.620Z,1.30
2023-05-08T08:07:45.352Z,3.60
2023-05-08T08:10:48.244Z,1.42
2023-05-08T08:13:50.800Z,1.15
2023-05-08T08:16:53.630Z,1.23
2023-05-08T08:19:57.233Z,1.20
2023-05-08T08:23:00.367Z,0.88
2023-05-08T08:26:02.999Z,0.80
2023-05-08T08:29:06.130Z,0.88
2023-05-08T08:32:09.739Z,2.58
2023-05-08T08:35:13.283Z,0.88
2023-05-08T08:38:16.899Z,0.88
2023-05-08T08:41:19.833Z,1.80
2023-05-08T08:44:22.837Z,0.95
2023-05-08T08:47:29.744Z,0.80
2023-05-08T08:50:36.107Z,1.85
2023-05-08T08:53:44.312Z,0.77
2023-05-08T08:56:49.810Z,0.70
2023-05-08T08:59:55.249Z,0.68
2023-05-08T09:02:58.426Z,0.50
2023-05-08T09:06:02.092Z,0.65
2023-05-08T09:09:05.815Z,0.70
2023-05-08T09:12:09.501Z,0.70
2023-05-08T09:15:12.878Z,0.93
2023-05-08T09:18:16.946Z,0.57
2023-05-08T09:21:22.385Z,2.15
2023-05-08T09:24:25.303Z,0.82
2023-05-08T09:27:29.676Z,0.70
2023-05-08T09:30:49.528Z,0.70
2023-05-08T09:33:52.164Z,0.90
2023-05-08T09:36:56.451Z,0.50
2023-05-08T09:40:22.378Z,0.40
2023-05-08T09:43:26.230Z,0.37
2023-05-08T09:46:30.022Z,0.75
2023-05-08T09:49:32.959Z,0.52
2023-05-08T09:52:37.961Z,0.60
2023-05-08T09:55:48.177Z,0.60
2023-05-08T09:58:51.060Z,0.50
2023-05-08T10:01:55.979Z,0.60
2023-05-08T10:04:59.246Z,0.52
2023-05-08T10:08:22.946Z,0.50
2023-05-08T10:11:26.520Z,0.50
2023-05-08T10:14:29.253Z,0.50
2023-05-08T10:17:45.045Z,0.60
2023-05-08T10:20:49.359Z,2.35
2023-05-08T10:23:56.591Z,0.95
2023-05-08T10:27:20.559Z,0.52
2023-05-08T10:30:27.228Z,0.60
2023-05-08T10:33:33.742Z,0.60
2023-05-08T10:36:37.670Z,0.32
2023-05-08T10:39:41.884Z,0.37
2023-05-08T10:42:45.738Z,0.57
2023-05-08T10:45:48.649Z,0.52
2023-05-08T10:49:17.895Z,0.50
2023-05-08T10:52:23.422Z,1.95
2023-05-08T10:55:34.172Z,0.75
2023-05-08T10:58:39.481Z,0.62
2023-05-08T11:01:43.802Z,0.50
2023-05-08T11:04:47.571Z,0.50
2023-05-08T11:07:58.332Z,0.82
2023-05-08T11:11:01.837Z,0.50
2023-05-08T11:14:08.140Z,0.98
2023-05-08T11:17:11.022Z,2.35
2023-05-08T11:20:14.357Z,0.52
2023-05-08T11:23:23.179Z,1.67
2023-05-08T11:26:42.424Z,0.47
2023-05-08T11:29:45.164Z,0.50
2023-05-08T11:33:03.795Z,0.50
2023-05-08T11:36:22.395Z,0.50
2023-05-08T11:39:25.386Z,0.50
2023-05-08T11:42:27.936Z,1.10
2023-05-08T11:45:32.203Z,0.47
2023-05-08T11:48:36.092Z,0.40
2023-05-08T11:51:39.322Z,1.00
2023-05-08T11:54:42.379Z,0.50
2023-05-08T11:57:45.237Z,0.57
2023-05-08T12:00:49.110Z,1.10
2023-05-08T12:04:01.299Z,0.82
2023-05-08T12:07:04.145Z,0.60
2023-05-08T12:10:07.900Z,0.52
2023-05-08T12:13:21.344Z,1.83
2023-05-08T12:16:25.940Z,1.23
2023-05-08T12:19:28.694Z,0.70
2023-05-08T12:22:31.693Z,0.50
2023-05-08T12:25:34.305Z,0.40
2023-05-08T12:28:37.257Z,0.70
2023-05-08T12:31:40.106Z,0.80
2023-05-08T12:34:43.736Z,0.82
2023-05-08T12:37:47.498Z,1.02
2023-05-08T12:40:52.938Z,0.55
2023-05-08T12:43:57.262Z,0.50
2023-05-08T12:47:00.474Z,1.65
2023-05-08T12:50:03.470Z,0.52
2023-05-08T12:53:09.659Z,0.93
2023-05-08T12:56:12.451Z,0.65
2023-05-08T12:59:15.419Z,1.00
2023-05-08T13:02:22.017Z,0.50
2023-05-08T13:05:25.164Z,1.77
2023-05-08T13:08:38.373Z,0.73
2023-05-08T13:11:41.646Z,1.95
2023-05-08T13:14:46.691Z,2.15
2023-05-08T13:17:49.561Z,0.70
2023-05-08T13:20:52.503Z,0.82
2023-05-08T13:23:56.794Z,0.70
2023-05-08T13:26:59.705Z,0.80
2023-05-08T13:30:02.698Z,0.70
2023-05-08T13:33:06.242Z,1.20
2023-05-08T13:36:09.389Z,3.08
2023-05-08T13:39:12.227Z,4.43
2023-05-08T13:42:15.272Z,0.80
2023-05-08T13:45:21.183Z,0.57
2023-05-08T13:48:24.180Z,1.08
2023-05-08T13:51:27.009Z,0.77
2023-05-08T13:54:30.153Z,1.25
2023-05-08T13:57:32.981Z,0.80
2023-05-08T14:00:36.249Z,0.70
2023-05-08T14:03:39.623Z,1.30
2023-05-08T14:06:42.264Z,0.88
2023-05-08T14:09:46.397Z,2.30
2023-05-08T14:12:49.103Z,1.87
2023-05-08T14:15:52.079Z,0.75
2023-05-08T14:18:54.739Z,1.27
2023-05-08T14:21:57.973Z,0.80
2023-05-08T14:25:00.873Z,0.73
2023-05-08T14:28:03.952Z,2.17
2023-05-08T14:31:06.657Z,1.00
2023-05-08T14:34:09.593Z,0.80
2023-05-08T14:37:13.146Z,0.75
2023-05-08T14:40:16.367Z,1.45
2023-05-08T14:43:19.005Z,0.65
2023-05-08T14:46:22.344Z,1.37
2023-05-08T14:49:36.688Z,0.82
2023-05-08T14:52:41.689Z,0.80
2023-05-08T14:55:44.567Z,0.70
2023-05-08T14:58:47.690Z,1.15
2023-05-08T15:01:50.711Z,2.22
2023-05-08T15:04:53.943Z,5.07
2023-05-08T15:07:57.458Z,0.73
2023-05-08T15:11:00.579Z,0.75
2023-05-08T15:14:04.598Z,2.90
2023-05-08T15:17:07.492Z,0.75
2023-05-08T15:20:10.379Z,2.87
2023-05-08T15:23:13.413Z,2.28
2023-05-08T15:26:16.008Z,2.10
2023-05-08T15:29:18.979Z,0.70
2023-05-08T15:32:22.106Z,1.02
2023-05-08T15:35:25.073Z,0.65
2023-05-08T15:38:27.857Z,0.90
2023-05-08T15:41:30.942Z,2.70
2023-05-08T15:44:52.578Z,0.50
2023-05-08T15:47:56.535Z,0.75
2023-05-08T15:50:59.522Z,0.98
2023-05-08T15:54:02.681Z,0.85
2023-05-08T15:57:05.967Z,1.12
2023-05-08T16:00:09.612Z,1.15
2023-05-08T16:03:13.054Z,0.70
2023-05-08T16:06:16.604Z,2.70
2023-05-08T16:09:19.613Z,2.00
2023-05-08T16:12:22.274Z,0.95
2023-05-08T16:15:25.475Z,1.17
2023-05-08T16:18:28.340Z,1.23
2023-05-08T16:21:31.563Z,1.12
2023-05-08T16:24:34.202Z,1.10
2023-05-08T16:27:37.202Z,1.27
2023-05-08T16:30:39.875Z,1.42
2023-05-08T16:33:42.797Z,0.90
2023-05-08T16:36:45.679Z,1.25
2023-05-08T16:39:48.934Z,1.30
2023-05-08T16:42:51.662Z,1.52
2023-05-08T16:45:56.214Z,1.80
2023-05-08T16:48:59.995Z,1.80
2023-05-08T16:52:02.896Z,1.60
2023-05-08T16:55:05.994Z,2.00
2023-05-08T16:58:09.913Z,1.90
2023-05-08T17:01:13.092Z,1.80
2023-05-08T17:04:16.163Z,1.75
2023-05-08T17:07:18.930Z,1.60
2023-05-08T17:10:21.977Z,2.03
2023-05-08T17:13:24.646Z,2.00
2023-05-08T17:16:27.723Z,1.70
2023-05-08T17:19:30.540Z,2.15
2023-05-08T17:22:33.586Z,1.70
2023-05-08T17:25:37.638Z,3.17
2023-05-08T17:28:40.578Z,2.03
2023-05-08T17:31:43.303Z,2.40
2023-05-08T17:34:46.500Z,3.15
2023-05-08T17:37:49.730Z,2.87
2023-05-08T17:40:52.756Z,3.25
2023-05-08T17:43:55.716Z,4.55
2023-05-08T17:46:58.633Z,2.17
2023-05-08T17:50:01.370Z,2.85
2023-05-08T17:53:04.414Z,2.20
2023-05-08T17:56:07.814Z,2.08
2023-05-08T17:59:10.845Z,2.37
2023-05-08T18:02:13.568Z,2.20
2023-05-08T18:05:16.493Z,2.58
2023-05-08T18:08:19.255Z,2.00
2023-05-08T18:11:26.885Z,2.00
2023-05-08T18:14:32.969Z,2.35
2023-05-08T18:17:36.511Z,2.00
2023-05-08T18:20:39.220Z,3.53
2023-05-08T18:23:42.480Z,2.50
2023-05-08T18:26:47.625Z,2.50
2023-05-08T18:29:50.761Z,1.98
2023-05-08T18:32:53.662Z,3.05
2023-05-08T18:35:56.732Z,2.35
2023-05-08T18:39:00.126Z,2.72
2023-05-08T18:42:03.256Z,2.45
2023-05-08T18:45:06.772Z,4.25
2023-05-08T18:48:09.981Z,2.67
2023-05-08T18:51:12.856Z,3.72
2023-05-08T18:54:15.806Z,3.15
2023-05-08T18:57:18.551Z,2.17
2023-05-08T19:00:21.688Z,3.72
2023-05-08T19:03:24.925Z,3.00
2023-05-08T19:06:28.271Z,2.25
2023-05-08T19:09:31.097Z,3.05
2023-05-08T19:12:34.072Z,3.30
2023-05-08T19:15:36.850Z,2.15
2023-05-08T19:18:39.876Z,4.35
2023-05-08T19:21:42.832Z,2.65
2023-05-08T19:24:45.913Z,3.53
2023-05-08T19:27:49.141Z,2.40
2023-05-08T19:30:52.240Z,4.40
2023-05-08T19:33:55.083Z,2.17
2023-05-08T19:36:58.152Z,4.37
2023-05-08T19:40:00.756Z,3.65
2023-05-08T19:43:03.754Z,3.47
2023-05-08T19:46:07.089Z,2.53
2023-05-08T19:49:10.207Z,4.12
2023-05-08T19:52:15.082Z,4.10
2023-05-08T19:55:18.644Z,2.60
2023-05-08T19:58:21.337Z,2.42
2023-05-08T20:01:24.401Z,2.45
2023-05-08T20:04:27.418Z,1.98
2023-05-08T20:07:30.271Z,3.17
2023-05-08T20:10:33.423Z,3.37
2023-05-08T20:13:36.111Z,3.53
2023-05-08T20:16:39.104Z,3.37
2023-05-08T20:19:41.735Z,2.15
2023-05-08T20:22:44.618Z,2.87
2023-05-08T20:25:48.072Z,4.60
2023-05-08T20:28:51.024Z,2.62
2023-05-08T20:31:53.972Z,2.00
2023-05-08T20:34:56.921Z,3.42
2023-05-08T20:37:59.687Z,2.33
2023-05-08T20:41:03.669Z,3.15
2023-05-08T20:44:06.324Z,2.92
2023-05-08T20:47:09.397Z,2.55
2023-05-08T20:50:12.455Z,2.70
2023-05-08T20:53:15.532Z,5.68
2023-05-08T20:56:19.147Z,2.67
2023-05-08T20:59:23.465Z,3.67
2023-05-08T21:02:26.131Z,3.10
2023-05-08T21:05:29.324Z,3.25
2023-05-08T21:08:32.026Z,2.12
2023-05-08T21:11:35.148Z,3.55
2023-05-08T21:14:37.806Z,2.65
2023-05-08T21:17:40.720Z,2.75
2023-05-08T21:20:50.003Z,3.22
2023-05-08T21:23:53.630Z,3.67
2023-05-08T21:26:56.374Z,2.70
2023-05-08T21:29:59.376Z,3.05
2023-05-08T21:33:03.052Z,3.45
2023-05-08T21:36:06.184Z,2.62
2023-05-08T21:39:09.387Z,3.03
2023-05-08T21:42:12.294Z,4.90
2023-05-08T21:45:15.230Z,3.83
2023-05-08T21:48:18.543Z,2.78
2023-05-08T21:51:21.147Z,2.28
2023-05-08T21:54:24.323Z,2.12
2023-05-08T21:57:26.916Z,1.98
2023-05-08T22:00:29.878Z,3.40
2023-05-08T22:03:32.880Z,2.40
2023-05-08T22:06:35.644Z,3.12
2023-05-08T22:09:38.673Z,5.05
2023-05-08T22:12:41.389Z,2.55
2023-05-08T22:15:44.479Z,3.25
2023-05-08T22:18:47.103Z,1.95
2023-05-08T22:21:50.030Z,1.87
2023-05-08T22:24:52.710Z,4.35
2023-05-08T22:27:55.549Z,2.65
2023-05-08T22:30:58.332Z,2.05
2023-05-08T22:34:01.342Z,2.08
2023-05-08T22:37:03.963Z,2.53
2023-05-08T22:40:07.702Z,4.22
2023-05-08T22:43:10.565Z,2.40
2023-05-08T22:46:13.713Z,5.20
2023-05-08T22:49:16.993Z,2.62
2023-05-08T22:52:20.065Z,2.10
2023-05-08T22:55:22.760Z,2.37
2023-05-08T22:58:27.216Z,5.55
2023-05-08T23:01:29.958Z,1.95
2023-05-08T23:04:32.959Z,4.15
2023-05-08T23:07:35.506Z,2.53
2023-05-08T23:10:38.441Z,3.33
2023-05-08T23:13:41.092Z,2.72
2023-05-08T23:16:44.025Z,2.00
2023-05-08T23:19:46.789Z,2.20
2023-05-08T23:22:49.796Z,3.08
2023-05-08T23:25:52.359Z,2.40
2023-05-08T23:28:55.344Z,5.60
2023-05-08T23:31:58.019Z,1.87
2023-05-08T23:35:01.095Z,1.75
2023-05-08T23:38:03.857Z,2.08
2023-05-08T23:41:07.819Z,4.25
2023-05-08T23:44:10.480Z,2.42
2023-05-08T23:47:13.406Z,2.05
2023-05-08T23:50:16.069Z,2.25
2023-05-08T23:53:18.971Z,2.30
2023-05-08T23:56:21.901Z,2.03
2023-05-08T23:59:24.828Z,2.47
